createdAt,value
2018-06-04T00:00:43.140Z,0.00
2018-06-04T00:01:43.146Z,0.00
2018-06-04T00:03:04.158Z,0.00
2018-06-04T00:03:43.153Z,0.00
2018-06-04T00:04:43.158Z,0.00
2018-06-04T00:05:43.160Z,0.00
2018-06-04T00:06:43.160Z,0.00
2018-06-04T00:07:43.164Z,0.00
2018-06-04T00:09:04.212Z,0.00
2018-06-04T00:09:43.168Z,0.00
2018-06-04T00:10:43.173Z,0.00
2018-06-04T00:11:43.173Z,0.00
2018-06-04T00:12:43.177Z,0.00
2018-06-04T00:13:43.178Z,0.00
2018-06-04T00:15:04.193Z,0.00
2018-06-04T00:15:43.185Z,0.00
2018-06-04T00:16:43.186Z,0.00
2018-06-04T00:17:43.192Z,0.00
2018-06-04T00:18:43.192Z,0.00
2018-06-04T00:19:43.197Z,0.00
2018-06-04T00:21:04.210Z,0.00
2018-06-04T00:21:43.223Z,0.00
2018-06-04T00:22:43.201Z,0.00
2018-06-04T00:23:43.205Z,0.00
2018-06-04T00:24:43.205Z,0.00
2018-06-04T00:25:43.217Z,0.00
2018-06-04T00:27:04.221Z,0.00
2018-06-04T00:27:43.218Z,0.00
2018-06-04T00:28:43.255Z,0.00
2018-06-04T00:29:43.222Z,0.00
2018-06-04T00:30:43.226Z,0.00
2018-06-04T00:31:43.225Z,0.00
2018-06-04T00:33:04.240Z,0.00
2018-06-04T00:33:43.231Z,0.00
2018-06-04T00:34:43.274Z,0.00
2018-06-04T00:35:43.238Z,0.00
2018-06-04T00:36:43.243Z,0.00
2018-06-04T00:37:43.249Z,0.00
2018-06-04T00:39:04.313Z,0.00
2018-06-04T00:39:43.247Z,0.00
2018-06-04T00:40:43.248Z,0.00
2018-06-04T00:41:43.253Z,0.00
2018-06-04T00:42:43.260Z,0.00
2018-06-04T00:43:43.257Z,0.00
2018-06-04T00:45:04.269Z,0.00
2018-06-04T00:45:43.265Z,0.00
2018-06-04T00:46:43.262Z,0.00
2018-06-04T00:47:43.270Z,0.00
2018-06-04T00:48:43.270Z,0.00
2018-06-04T00:49:43.270Z,0.00
2018-06-04T00:51:04.283Z,0.00
2018-06-04T00:51:43.276Z,0.00
2018-06-04T00:52:43.283Z,0.00
2018-06-04T00:53:43.288Z,0.00
2018-06-04T00:54:43.285Z,0.00
2018-06-04T00:55:43.292Z,0.00
2018-06-04T00:57:04.301Z,0.00
2018-06-04T00:57:43.298Z,0.00
2018-06-04T00:58:43.355Z,0.00
2018-06-04T00:59:43.306Z,0.00
2018-06-04T01:00:43.303Z,0.00
2018-06-04T01:01:43.305Z,0.00
2018-06-04T01:03:04.320Z,0.00
2018-06-04T01:03:43.311Z,0.00
2018-06-04T01:04:43.310Z,0.00
2018-06-04T01:05:43.315Z,0.00
2018-06-04T01:06:43.316Z,0.00
2018-06-04T01:07:43.322Z,0.00
2018-06-04T01:09:04.414Z,0.00
2018-06-04T01:09:43.931Z,0.00
2018-06-04T01:10:43.335Z,0.00
2018-06-04T01:11:43.331Z,0.00
2018-06-04T01:12:43.331Z,0.00
2018-06-04T01:13:43.328Z,0.00
2018-06-04T01:15:04.350Z,0.00
2018-06-04T01:15:43.337Z,0.00
2018-06-04T01:16:43.343Z,0.00
2018-06-04T01:17:43.343Z,0.00
2018-06-04T01:18:43.341Z,0.00
2018-06-04T01:19:43.346Z,0.00
2018-06-04T01:21:04.363Z,0.00
2018-06-04T01:21:43.352Z,0.00
2018-06-04T01:22:43.353Z,0.00
2018-06-04T01:23:43.358Z,0.00
2018-06-04T01:24:43.359Z,0.00
2018-06-04T01:25:43.362Z,0.00
2018-06-04T01:27:04.379Z,0.00
2018-06-04T01:27:43.367Z,0.00
2018-06-04T01:28:43.369Z,0.00
2018-06-04T01:29:43.371Z,0.00
2018-06-04T01:30:43.375Z,0.00
2018-06-04T01:31:43.383Z,0.00
2018-06-04T01:33:04.385Z,0.00
2018-06-04T01:33:43.387Z,0.00
2018-06-04T01:34:43.381Z,0.00
2018-06-04T01:35:43.382Z,0.00
2018-06-04T01:36:43.384Z,0.00
2018-06-04T01:37:43.388Z,0.00
2018-06-04T01:39:04.419Z,0.00
2018-06-04T01:39:43.398Z,0.00
2018-06-04T01:40:44.336Z,0.00
2018-06-04T01:41:43.398Z,0.00
2018-06-04T01:42:43.406Z,0.00
2018-06-04T01:43:43.400Z,0.00
2018-06-04T01:45:04.411Z,0.00
2018-06-04T01:45:43.409Z,0.00
2018-06-04T01:46:43.412Z,0.00
2018-06-04T01:47:43.417Z,0.00
2018-06-04T01:48:43.425Z,0.00
2018-06-04T01:49:43.418Z,0.00
2018-06-04T01:51:04.462Z,0.00
2018-06-04T01:51:43.419Z,0.00
2018-06-04T01:52:43.420Z,0.00
2018-06-04T01:53:43.434Z,0.00
2018-06-04T01:54:43.427Z,0.00
2018-06-04T01:55:43.429Z,0.00
2018-06-04T01:57:04.438Z,0.00
2018-06-04T01:57:43.433Z,0.00
2018-06-04T01:58:43.436Z,0.00
2018-06-04T01:59:43.433Z,0.00
2018-06-04T02:00:43.439Z,0.00
2018-06-04T02:01:43.453Z,0.00
2018-06-04T02:03:04.449Z,0.00
2018-06-04T02:03:43.443Z,0.00
2018-06-04T02:04:43.453Z,0.00
2018-06-04T02:05:43.449Z,0.00
2018-06-04T02:06:43.454Z,0.00
2018-06-04T02:07:43.453Z,0.00
2018-06-04T02:09:04.517Z,0.00
2018-06-04T02:09:43.456Z,0.00
2018-06-04T02:10:43.456Z,0.00
2018-06-04T02:11:43.462Z,0.00
2018-06-04T02:12:43.463Z,0.00
2018-06-04T02:13:43.460Z,0.00
2018-06-04T02:15:04.475Z,0.00
2018-06-04T02:15:43.485Z,0.00
2018-06-04T02:16:43.477Z,0.00
2018-06-04T02:17:43.479Z,0.00
2018-06-04T02:18:43.474Z,0.00
2018-06-04T02:19:43.475Z,0.00
2018-06-04T02:21:04.491Z,0.00
2018-06-04T02:21:43.480Z,0.00
2018-06-04T02:22:43.500Z,0.00
2018-06-04T02:23:43.485Z,0.00
2018-06-04T02:24:43.491Z,0.00
2018-06-04T02:25:43.501Z,0.00
2018-06-04T02:27:04.501Z,0.00
2018-06-04T02:27:43.493Z,0.00
2018-06-04T02:28:43.497Z,0.00
2018-06-04T02:29:43.499Z,0.00
2018-06-04T02:30:43.500Z,0.00
2018-06-04T02:31:43.506Z,0.00
2018-06-04T02:33:04.511Z,0.00
2018-06-04T02:33:43.520Z,0.00
2018-06-04T02:34:43.503Z,0.00
2018-06-04T02:35:43.507Z,0.00
2018-06-04T02:36:43.512Z,0.00
2018-06-04T02:37:43.520Z,0.00
2018-06-04T02:39:04.621Z,0.00
2018-06-04T02:39:43.520Z,0.00
2018-06-04T02:40:43.521Z,0.00
2018-06-04T02:41:43.523Z,0.00
2018-06-04T02:42:43.527Z,0.00
2018-06-04T02:43:43.526Z,0.00
2018-06-04T02:45:04.539Z,0.00
2018-06-04T02:45:43.539Z,0.00
2018-06-04T02:46:43.531Z,0.00
2018-06-04T02:47:43.542Z,0.00
2018-06-04T02:48:43.545Z,0.00
2018-06-04T02:49:43.542Z,0.00
2018-06-04T02:51:04.549Z,0.00
2018-06-04T02:51:43.547Z,0.00
2018-06-04T02:52:43.544Z,0.00
2018-06-04T02:53:43.593Z,0.00
2018-06-04T02:54:43.546Z,0.00
2018-06-04T02:55:43.546Z,0.00
2018-06-04T02:57:04.561Z,0.00
2018-06-04T02:57:43.551Z,0.00
2018-06-04T02:58:43.684Z,0.00
2018-06-04T02:59:43.558Z,0.00
2018-06-04T03:00:43.569Z,0.00
2018-06-04T03:01:43.559Z,0.00
2018-06-04T03:03:04.566Z,0.00
2018-06-04T03:03:43.561Z,0.00
2018-06-04T03:04:43.566Z,0.00
2018-06-04T03:05:43.566Z,0.00
2018-06-04T03:06:43.566Z,0.00
2018-06-04T03:07:43.572Z,0.00
2018-06-04T03:09:04.623Z,0.00
2018-06-04T03:09:43.576Z,0.00
2018-06-04T03:10:43.579Z,0.00
2018-06-04T03:11:43.578Z,0.00
2018-06-04T03:12:43.575Z,5.63
2018-06-04T03:13:43.580Z,5.63
2018-06-04T03:15:04.599Z,5.63
2018-06-04T03:15:43.585Z,5.63
2018-06-04T03:16:43.587Z,5.63
2018-06-04T03:17:43.586Z,5.63
2018-06-04T03:18:43.597Z,5.63
2018-06-04T03:19:43.591Z,5.63
2018-06-04T03:21:04.602Z,5.63
2018-06-04T03:21:43.593Z,5.63
2018-06-04T03:22:43.592Z,5.63
2018-06-04T03:23:43.595Z,5.63
2018-06-04T03:24:43.600Z,5.63
2018-06-04T03:25:43.600Z,11.25
2018-06-04T03:27:04.606Z,11.25
2018-06-04T03:27:43.609Z,11.25
2018-06-04T03:28:43.660Z,11.25
2018-06-04T03:29:43.610Z,11.25
2018-06-04T03:30:43.610Z,11.25
2018-06-04T03:31:43.616Z,11.25
2018-06-04T03:33:04.624Z,11.25
2018-06-04T03:33:43.613Z,11.25
2018-06-04T03:34:43.620Z,16.88
2018-06-04T03:35:43.618Z,16.88
2018-06-04T03:36:43.617Z,16.88
2018-06-04T03:37:43.621Z,16.88
2018-06-04T03:39:04.720Z,16.88
2018-06-04T03:39:43.624Z,16.88
2018-06-04T03:40:43.627Z,16.88
2018-06-04T03:41:43.626Z,16.88
2018-06-04T03:42:43.628Z,16.88
2018-06-04T03:43:43.880Z,16.88
2018-06-04T03:45:04.642Z,22.50
2018-06-04T03:45:43.632Z,22.50
2018-06-04T03:46:43.638Z,22.50
2018-06-04T03:47:43.636Z,22.50
2018-06-04T03:48:43.647Z,22.50
2018-06-04T03:49:43.648Z,22.50
2018-06-04T03:51:04.654Z,22.50
2018-06-04T03:51:43.642Z,28.13
2018-06-04T03:52:43.643Z,28.13
2018-06-04T03:53:43.648Z,28.13
2018-06-04T03:54:43.649Z,28.13
2018-06-04T03:55:43.647Z,28.13
2018-06-04T03:57:04.661Z,33.75
2018-06-04T03:57:43.652Z,33.75
2018-06-04T03:58:43.657Z,33.75
2018-06-04T03:59:43.657Z,33.75
2018-06-04T04:00:43.660Z,33.75
2018-06-04T04:01:43.670Z,33.75
2018-06-04T04:03:04.672Z,33.75
2018-06-04T04:03:43.661Z,33.75
2018-06-04T04:04:43.667Z,33.75
2018-06-04T04:05:43.665Z,33.75
2018-06-04T04:06:43.671Z,33.75
2018-06-04T04:07:43.673Z,33.75
2018-06-04T04:09:04.720Z,39.38
2018-06-04T04:09:43.684Z,39.38
2018-06-04T04:10:43.697Z,39.38
2018-06-04T04:11:43.675Z,39.38
2018-06-04T04:12:43.680Z,45.00
2018-06-04T04:13:43.681Z,45.00
2018-06-04T04:15:04.689Z,45.00
2018-06-04T04:15:43.690Z,50.63
2018-06-04T04:16:43.685Z,50.63
2018-06-04T04:17:43.690Z,50.63
2018-06-04T04:18:43.689Z,45.00
2018-06-04T04:19:43.691Z,45.00
2018-06-04T04:21:04.705Z,45.00
2018-06-04T04:21:43.699Z,45.00
2018-06-04T04:22:43.700Z,45.00
2018-06-04T04:23:43.699Z,45.00
2018-06-04T04:24:43.702Z,50.63
2018-06-04T04:25:43.706Z,50.63
2018-06-04T04:27:04.712Z,50.63
2018-06-04T04:27:43.707Z,45.00
2018-06-04T04:28:43.712Z,45.00
2018-06-04T04:29:43.714Z,50.63
2018-06-04T04:30:43.716Z,50.63
2018-06-04T04:31:43.711Z,50.63
2018-06-04T04:33:04.731Z,50.63
2018-06-04T04:33:43.721Z,56.25
2018-06-04T04:34:43.727Z,56.25
2018-06-04T04:35:43.725Z,56.25
2018-06-04T04:36:43.726Z,56.25
2018-06-04T04:37:43.736Z,61.88
2018-06-04T04:39:04.831Z,67.50
2018-06-04T04:39:43.730Z,73.13
2018-06-04T04:40:43.733Z,84.38
2018-06-04T04:41:43.745Z,95.63
2018-06-04T04:42:43.737Z,95.63
2018-06-04T04:43:43.739Z,84.38
2018-06-04T04:45:04.752Z,67.50
2018-06-04T04:45:44.607Z,78.75
2018-06-04T04:46:43.788Z,95.63
2018-06-04T04:47:43.782Z,106.88
2018-06-04T04:48:43.749Z,112.50
2018-06-04T04:49:43.746Z,118.13
2018-06-04T04:51:05.580Z,118.13
2018-06-04T04:51:43.944Z,123.75
2018-06-04T04:52:43.787Z,123.75
2018-06-04T04:53:43.764Z,129.38
2018-06-04T04:54:43.764Z,129.38
2018-06-04T04:55:43.764Z,135.00
2018-06-04T04:57:04.780Z,135.00
2018-06-04T04:57:43.772Z,140.63
2018-06-04T04:58:43.770Z,140.63
2018-06-04T04:59:43.797Z,146.25
2018-06-04T05:00:43.785Z,146.25
2018-06-04T05:01:43.786Z,151.88
2018-06-04T05:03:04.790Z,151.88
2018-06-04T05:03:43.837Z,157.50
2018-06-04T05:04:43.792Z,151.88
2018-06-04T05:05:43.792Z,151.88
2018-06-04T05:06:43.791Z,168.75
2018-06-04T05:07:43.793Z,219.38
2018-06-04T05:09:04.921Z,309.38
2018-06-04T05:09:43.801Z,281.25
2018-06-04T05:10:43.798Z,163.13
2018-06-04T05:11:43.804Z,140.63
2018-06-04T05:12:43.810Z,84.38
2018-06-04T05:13:43.811Z,90.00
2018-06-04T05:15:04.828Z,292.50
2018-06-04T05:15:43.819Z,174.38
2018-06-04T05:16:43.821Z,320.63
2018-06-04T05:17:43.824Z,253.13
2018-06-04T05:18:43.834Z,208.13
2018-06-04T05:19:43.827Z,135.00
2018-06-04T05:21:04.846Z,151.88
2018-06-04T05:21:43.836Z,180.00
2018-06-04T05:22:43.840Z,118.13
2018-06-04T05:23:43.841Z,157.50
2018-06-04T05:24:43.848Z,309.38
2018-06-04T05:25:43.848Z,348.75
2018-06-04T05:27:05.133Z,286.88
2018-06-04T05:27:43.860Z,196.88
2018-06-04T05:28:43.859Z,225.00
2018-06-04T05:29:43.865Z,382.50
2018-06-04T05:30:43.870Z,298.13
2018-06-04T05:31:43.891Z,106.88
2018-06-04T05:33:04.886Z,101.25
2018-06-04T05:33:43.878Z,360.00
2018-06-04T05:34:43.883Z,315.00
2018-06-04T05:35:43.888Z,286.88
2018-06-04T05:36:43.889Z,219.38
2018-06-04T05:37:43.892Z,157.50
2018-06-04T05:39:04.922Z,230.63
2018-06-04T05:39:43.903Z,225.00
2018-06-04T05:40:43.904Z,230.63
2018-06-04T05:41:43.910Z,236.25
2018-06-04T05:42:43.918Z,230.63
2018-06-04T05:43:43.917Z,230.63
2018-06-04T05:45:04.934Z,230.63
2018-06-04T05:45:43.933Z,230.63
2018-06-04T05:46:43.936Z,241.88
2018-06-04T05:47:43.938Z,236.25
2018-06-04T05:48:43.940Z,247.50
2018-06-04T05:49:43.948Z,320.63
2018-06-04T05:51:04.961Z,405.00
2018-06-04T05:51:43.951Z,382.50
2018-06-04T05:52:43.956Z,320.63
2018-06-04T05:53:43.981Z,258.75
2018-06-04T05:54:43.965Z,247.50
2018-06-04T05:55:43.967Z,247.50
2018-06-04T05:57:04.985Z,270.00
2018-06-04T05:57:43.981Z,343.13
2018-06-04T05:58:44.068Z,427.50
2018-06-04T05:59:43.985Z,444.38
2018-06-04T06:00:43.995Z,331.88
2018-06-04T06:01:44.037Z,247.50
2018-06-04T06:03:05.008Z,247.50
2018-06-04T06:03:44.005Z,247.50
2018-06-04T06:04:44.009Z,247.50
2018-06-04T06:05:44.017Z,247.50
2018-06-04T06:06:44.024Z,253.13
2018-06-04T06:07:44.025Z,253.13
2018-06-04T06:09:05.127Z,264.38
2018-06-04T06:09:44.057Z,303.75
2018-06-04T06:10:44.037Z,303.75
2018-06-04T06:11:44.041Z,326.25
2018-06-04T06:12:44.063Z,410.63
2018-06-04T06:13:44.051Z,393.75
2018-06-04T06:15:05.085Z,298.13
2018-06-04T06:15:44.063Z,247.50
2018-06-04T06:16:44.065Z,247.50
2018-06-04T06:17:44.073Z,247.50
2018-06-04T06:18:44.073Z,247.50
2018-06-04T06:19:44.115Z,241.88
2018-06-04T06:21:05.099Z,241.88
2018-06-04T06:21:44.084Z,247.50
2018-06-04T06:22:44.095Z,241.88
2018-06-04T06:23:44.092Z,241.88
2018-06-04T06:24:44.100Z,241.88
2018-06-04T06:25:44.108Z,236.25
2018-06-04T06:27:05.122Z,236.25
2018-06-04T06:27:44.118Z,230.63
2018-06-04T06:28:44.805Z,230.63
2018-06-04T06:29:44.133Z,236.25
2018-06-04T06:30:44.133Z,230.63
2018-06-04T06:31:44.140Z,230.63
2018-06-04T06:33:05.152Z,230.63
2018-06-04T06:33:44.153Z,225.00
2018-06-04T06:34:44.149Z,225.00
2018-06-04T06:35:44.157Z,225.00
2018-06-04T06:36:44.164Z,225.00
2018-06-04T06:37:44.188Z,225.00
2018-06-04T06:39:05.234Z,225.00
2018-06-04T06:39:44.191Z,225.00
2018-06-04T06:40:44.178Z,219.38
2018-06-04T06:41:44.183Z,219.38
2018-06-04T06:42:44.194Z,213.75
2018-06-04T06:43:44.189Z,213.75
2018-06-04T06:45:05.207Z,213.75
2018-06-04T06:45:44.202Z,208.13
2018-06-04T06:46:44.203Z,208.13
2018-06-04T06:47:44.210Z,202.50
2018-06-04T06:48:44.229Z,202.50
2018-06-04T06:49:44.219Z,196.88
2018-06-04T06:51:05.397Z,196.88
2018-06-04T06:51:44.269Z,196.88
2018-06-04T06:52:44.276Z,213.75
2018-06-04T06:53:44.240Z,196.88
2018-06-04T06:54:44.243Z,185.63
2018-06-04T06:55:44.464Z,185.63
2018-06-04T06:57:05.280Z,180.00
2018-06-04T06:57:44.731Z,168.75
2018-06-04T06:58:44.371Z,163.13
2018-06-04T06:59:44.265Z,151.88
2018-06-04T07:00:44.268Z,140.63
2018-06-04T07:01:44.305Z,135.00
2018-06-04T07:03:05.293Z,135.00
2018-06-04T07:03:44.279Z,123.75
2018-06-04T07:04:44.301Z,123.75
2018-06-04T07:05:44.289Z,123.75
2018-06-04T07:06:44.293Z,123.75
2018-06-04T07:07:44.301Z,118.13
2018-06-04T07:09:05.325Z,118.13
2018-06-04T07:09:44.307Z,118.13
2018-06-04T07:10:44.329Z,118.13
2018-06-04T07:11:44.314Z,112.50
2018-06-04T07:12:44.377Z,112.50
2018-06-04T07:13:44.330Z,112.50
2018-06-04T07:15:05.339Z,112.50
2018-06-04T07:15:44.339Z,112.50
2018-06-04T07:16:44.338Z,112.50
2018-06-04T07:17:44.345Z,112.50
2018-06-04T07:18:44.362Z,112.50
2018-06-04T07:19:44.607Z,112.50
2018-06-04T07:21:05.375Z,112.50
2018-06-04T07:21:44.356Z,112.50
2018-06-04T07:22:44.361Z,112.50
2018-06-04T07:23:44.366Z,112.50
2018-06-04T07:24:44.371Z,112.50
2018-06-04T07:25:44.376Z,112.50
2018-06-04T07:27:05.389Z,112.50
2018-06-04T07:27:44.384Z,112.50
2018-06-04T07:28:44.471Z,112.50
2018-06-04T07:29:44.392Z,112.50
2018-06-04T07:30:44.397Z,112.50
2018-06-04T07:31:44.402Z,118.13
2018-06-04T07:33:05.419Z,118.13
2018-06-04T07:33:44.419Z,118.13
2018-06-04T07:34:44.429Z,118.13
2018-06-04T07:35:44.420Z,118.13
2018-06-04T07:36:44.468Z,118.13
2018-06-04T07:37:44.430Z,118.13
2018-06-04T07:39:05.534Z,118.13
2018-06-04T07:39:44.439Z,118.13
2018-06-04T07:40:44.451Z,118.13
2018-06-04T07:41:44.443Z,118.13
2018-06-04T07:42:44.447Z,118.13
2018-06-04T07:43:44.450Z,118.13
2018-06-04T07:45:05.468Z,118.13
2018-06-04T07:45:44.467Z,118.13
2018-06-04T07:46:44.465Z,118.13
2018-06-04T07:47:44.469Z,118.13
2018-06-04T07:48:44.482Z,118.13
2018-06-04T07:49:44.485Z,118.13
2018-06-04T07:51:05.490Z,118.13
2018-06-04T07:51:44.502Z,118.13
2018-06-04T07:52:44.489Z,118.13
2018-06-04T07:53:44.495Z,118.13
2018-06-04T07:54:44.499Z,118.13
2018-06-04T07:55:44.696Z,118.13
2018-06-04T07:57:05.872Z,118.13
2018-06-04T07:57:44.520Z,123.75
2018-06-04T07:58:44.518Z,123.75
2018-06-04T07:59:44.518Z,123.75
2018-06-04T08:00:44.531Z,123.75
2018-06-04T08:01:44.534Z,123.75
2018-06-04T08:03:05.555Z,123.75
2018-06-04T08:03:44.596Z,123.75
2018-06-04T08:04:44.541Z,123.75
2018-06-04T08:05:44.546Z,129.38
2018-06-04T08:06:44.552Z,129.38
2018-06-04T08:07:44.559Z,129.38
2018-06-04T08:09:05.743Z,129.38
2018-06-04T08:09:44.783Z,129.38
2018-06-04T08:10:44.757Z,129.38
2018-06-04T08:11:44.579Z,129.38
2018-06-04T08:12:44.580Z,129.38
2018-06-04T08:13:44.589Z,129.38
2018-06-04T08:15:05.599Z,129.38
2018-06-04T08:15:45.124Z,129.38
2018-06-04T08:16:47.321Z,129.38
2018-06-04T08:17:44.602Z,129.38
2018-06-04T08:18:44.608Z,129.38
2018-06-04T08:19:44.614Z,129.38
2018-06-04T08:21:05.633Z,129.38
2018-06-04T08:21:46.724Z,135.00
2018-06-04T08:22:45.513Z,135.00
2018-06-04T08:23:44.667Z,135.00
2018-06-04T08:24:44.632Z,135.00
2018-06-04T08:25:44.638Z,140.63
2018-06-04T08:27:05.654Z,140.63
2018-06-04T08:27:44.686Z,135.00
2018-06-04T08:28:44.677Z,135.00
2018-06-04T08:29:44.659Z,146.25
2018-06-04T08:30:44.661Z,191.25
2018-06-04T08:31:44.671Z,219.38
2018-06-04T08:33:05.682Z,230.63
2018-06-04T08:33:44.675Z,286.88
2018-06-04T08:34:44.682Z,309.38
2018-06-04T08:35:45.052Z,315.00
2018-06-04T08:36:45.558Z,320.63
2018-06-04T08:37:44.716Z,292.50
2018-06-04T08:39:06.126Z,331.88
2018-06-04T08:39:44.705Z,348.75
2018-06-04T08:40:44.714Z,354.38
2018-06-04T08:41:44.977Z,360.00
2018-06-04T08:42:44.984Z,365.63
2018-06-04T08:43:44.730Z,360.00
2018-06-04T08:45:05.757Z,303.75
2018-06-04T08:45:44.798Z,376.88
2018-06-04T08:46:44.758Z,393.75
2018-06-04T08:47:45.395Z,365.63
2018-06-04T08:48:44.766Z,331.88
2018-06-04T08:49:44.778Z,129.38
2018-06-04T08:51:05.809Z,123.75
2018-06-04T08:51:44.797Z,112.50
2018-06-04T08:52:44.796Z,112.50
2018-06-04T08:53:44.834Z,106.88
2018-06-04T08:54:44.825Z,106.88
2018-06-04T08:55:44.827Z,101.25
2018-06-04T08:57:05.852Z,106.88
2018-06-04T08:57:45.084Z,191.25
2018-06-04T08:58:44.842Z,309.38
2018-06-04T08:59:44.850Z,360.00
2018-06-04T09:00:44.855Z,421.88
2018-06-04T09:01:44.867Z,528.75
2018-06-04T09:03:06.057Z,438.75
2018-06-04T09:03:44.882Z,573.75
2018-06-04T09:04:44.887Z,601.88
2018-06-04T09:05:44.897Z,601.88
2018-06-04T09:06:44.898Z,618.75
2018-06-04T09:07:44.917Z,618.75
2018-06-04T09:09:06.185Z,618.75
2018-06-04T09:09:44.929Z,624.38
2018-06-04T09:10:44.936Z,641.25
2018-06-04T09:11:44.940Z,658.13
2018-06-04T09:12:44.950Z,675.00
2018-06-04T09:13:44.961Z,680.63
2018-06-04T09:15:05.977Z,703.13
2018-06-04T09:15:45.013Z,708.75
2018-06-04T09:16:44.987Z,731.25
2018-06-04T09:17:44.994Z,720.00
2018-06-04T09:18:45.051Z,320.63
2018-06-04T09:19:45.029Z,551.25
2018-06-04T09:21:06.039Z,731.25
2018-06-04T09:21:45.105Z,781.88
2018-06-04T09:22:45.845Z,832.50
2018-06-04T09:23:45.060Z,871.88
2018-06-04T09:24:45.481Z,826.88
2018-06-04T09:25:45.083Z,826.88
2018-06-04T09:27:06.106Z,815.63
2018-06-04T09:27:45.097Z,843.75
2018-06-04T09:28:45.118Z,832.50
2018-06-04T09:29:45.120Z,866.25
2018-06-04T09:30:45.125Z,900.00
2018-06-04T09:31:45.177Z,922.50
2018-06-04T09:33:06.167Z,945.00
2018-06-04T09:33:45.176Z,967.50
2018-06-04T09:34:45.181Z,990.00
2018-06-04T09:35:45.187Z,230.63
2018-06-04T09:36:45.202Z,556.88
2018-06-04T09:37:45.213Z,810.00
2018-06-04T09:39:06.360Z,236.25
2018-06-04T09:39:45.237Z,821.25
2018-06-04T09:40:45.253Z,815.63
2018-06-04T09:41:45.262Z,939.38
2018-06-04T09:42:45.286Z,1001.25
2018-06-04T09:43:45.283Z,1001.25
2018-06-04T09:45:06.307Z,1057.50
2018-06-04T09:45:45.311Z,1080.00
2018-06-04T09:46:45.332Z,1096.88
2018-06-04T09:47:45.366Z,1102.50
2018-06-04T09:48:45.386Z,1125.00
2018-06-04T09:49:45.362Z,1074.38
2018-06-04T09:51:06.386Z,1074.38
2018-06-04T09:51:45.401Z,478.13
2018-06-04T09:52:45.528Z,264.38
2018-06-04T09:53:45.425Z,241.88
2018-06-04T09:54:45.447Z,236.25
2018-06-04T09:55:45.517Z,236.25
2018-06-04T09:57:06.460Z,348.75
2018-06-04T09:57:45.539Z,1119.38
2018-06-04T09:58:45.498Z,1130.63
2018-06-04T09:59:45.500Z,1175.63
2018-06-04T10:00:45.583Z,1203.75
2018-06-04T10:01:45.599Z,1220.63
2018-06-04T10:03:06.532Z,1237.50
2018-06-04T10:03:45.586Z,1237.50
2018-06-04T10:04:45.619Z,1248.75
2018-06-04T10:05:45.609Z,1254.38
2018-06-04T10:06:45.591Z,1248.75
2018-06-04T10:07:45.601Z,1260.00
2018-06-04T10:09:06.610Z,1254.38
2018-06-04T10:09:45.679Z,1271.25
2018-06-04T10:10:45.687Z,1299.38
2018-06-04T10:11:45.656Z,1361.25
2018-06-04T10:12:45.667Z,1395.00
2018-06-04T10:13:45.694Z,1158.75
2018-06-04T10:15:06.731Z,1462.50
2018-06-04T10:15:45.711Z,281.25
2018-06-04T10:16:45.701Z,354.38
2018-06-04T10:17:45.717Z,236.25
2018-06-04T10:18:45.728Z,1445.63
2018-06-04T10:19:45.745Z,1350.00
2018-06-04T10:21:06.799Z,1355.63
2018-06-04T10:21:45.812Z,1406.25
2018-06-04T10:22:45.783Z,1406.25
2018-06-04T10:23:45.797Z,1350.00
2018-06-04T10:24:45.815Z,1237.50
2018-06-04T10:25:45.827Z,1316.25
2018-06-04T10:27:06.863Z,1338.75
2018-06-04T10:27:45.895Z,1389.38
2018-06-04T10:28:45.909Z,1400.63
2018-06-04T10:29:45.887Z,528.75
2018-06-04T10:30:45.907Z,174.38
2018-06-04T10:31:45.913Z,163.13
2018-06-04T10:33:06.948Z,140.63
2018-06-04T10:33:45.996Z,135.00
2018-06-04T10:34:45.960Z,180.00
2018-06-04T10:35:45.982Z,1293.75
2018-06-04T10:36:45.990Z,596.25
2018-06-04T10:37:46.023Z,793.13
2018-06-04T10:39:07.123Z,427.50
2018-06-04T10:39:46.028Z,275.63
2018-06-04T10:40:46.063Z,270.00
2018-06-04T10:41:46.054Z,461.25
2018-06-04T10:42:46.073Z,191.25
2018-06-04T10:43:46.078Z,388.13
2018-06-04T10:45:07.103Z,1546.88
2018-06-04T10:45:46.137Z,1575.00
2018-06-04T10:46:46.271Z,1524.38
2018-06-04T10:47:46.126Z,1580.63
2018-06-04T10:48:46.142Z,1614.38
2018-06-04T10:49:46.150Z,1659.38
2018-06-04T10:51:07.173Z,1665.00
2018-06-04T10:51:46.175Z,1670.63
2018-06-04T10:52:46.201Z,1704.38
2018-06-04T10:53:46.200Z,1721.25
2018-06-04T10:54:46.639Z,1749.38
2018-06-04T10:55:46.222Z,1687.50
2018-06-04T10:57:07.900Z,219.38
2018-06-04T10:57:46.251Z,292.50
2018-06-04T10:58:46.308Z,1001.25
2018-06-04T10:59:46.282Z,1603.13
2018-06-04T11:00:46.292Z,1670.63
2018-06-04T11:01:46.301Z,1732.50
2018-06-04T11:03:07.329Z,1738.13
2018-06-04T11:03:46.331Z,1726.88
2018-06-04T11:04:46.350Z,1760.63
2018-06-04T11:05:46.416Z,1828.13
2018-06-04T11:06:46.370Z,1833.75
2018-06-04T11:07:46.383Z,1856.25
2018-06-04T11:09:07.477Z,1833.75
2018-06-04T11:09:46.460Z,1867.50
2018-06-04T11:10:46.444Z,1828.13
2018-06-04T11:11:46.443Z,1563.75
2018-06-04T11:12:46.492Z,281.25
2018-06-04T11:13:46.474Z,1873.13
2018-06-04T11:15:07.602Z,1366.88
2018-06-04T11:15:46.673Z,1867.50
2018-06-04T11:16:46.514Z,1411.88
2018-06-04T11:17:46.527Z,1771.88
2018-06-04T11:18:47.472Z,1845.00
2018-06-04T11:19:47.433Z,1732.50
2018-06-04T11:21:07.599Z,1867.50
2018-06-04T11:21:46.719Z,1828.13
2018-06-04T11:22:46.838Z,1833.75
2018-06-04T11:23:46.628Z,1845.00
2018-06-04T11:24:47.213Z,1839.38
2018-06-04T11:25:46.709Z,292.50
2018-06-04T11:27:07.693Z,281.25
2018-06-04T11:27:46.958Z,219.38
2018-06-04T11:28:46.716Z,196.88
2018-06-04T11:29:46.736Z,281.25
2018-06-04T11:30:46.773Z,1591.88
2018-06-04T11:31:46.986Z,270.00
2018-06-04T11:33:08.413Z,213.75
2018-06-04T11:33:50.427Z,1665.00
2018-06-04T11:34:46.824Z,1659.38
2018-06-04T11:35:46.831Z,1659.38
2018-06-04T11:36:46.842Z,1434.38
2018-06-04T11:37:46.855Z,416.25
2018-06-04T11:39:08.034Z,506.25
2018-06-04T11:39:46.875Z,331.88
2018-06-04T11:40:46.925Z,225.00
2018-06-04T11:41:46.908Z,1743.75
2018-06-04T11:42:46.926Z,1833.75
2018-06-04T11:43:46.987Z,1873.13
2018-06-04T11:45:07.959Z,1833.75
2018-06-04T11:45:46.972Z,1828.13
2018-06-04T11:46:46.992Z,1833.75
2018-06-04T11:47:47.005Z,1811.25
2018-06-04T11:48:47.012Z,1800.00
2018-06-04T11:49:47.021Z,1788.75
2018-06-04T11:51:08.209Z,1788.75
2018-06-04T11:51:47.061Z,1794.38
2018-06-04T11:52:47.071Z,1833.75
2018-06-04T11:53:47.090Z,1833.75
2018-06-04T11:54:47.106Z,1811.25
2018-06-04T11:55:47.166Z,1895.63
2018-06-04T11:57:08.158Z,1805.63
2018-06-04T11:57:47.236Z,1108.13
2018-06-04T11:58:47.231Z,376.88
2018-06-04T11:59:47.191Z,410.63
2018-06-04T12:00:47.213Z,337.50
2018-06-04T12:01:48.921Z,343.13
2018-06-04T12:03:08.254Z,253.13
2018-06-04T12:03:47.259Z,225.00
2018-06-04T12:04:47.273Z,213.75
2018-06-04T12:05:47.288Z,185.63
2018-06-04T12:06:47.316Z,185.63
2018-06-04T12:07:47.317Z,180.00
2018-06-04T12:09:08.777Z,185.63
2018-06-04T12:09:47.347Z,180.00
2018-06-04T12:10:47.357Z,185.63
2018-06-04T12:11:47.437Z,213.75
2018-06-04T12:12:47.378Z,1659.38
2018-06-04T12:13:47.425Z,1783.13
2018-06-04T12:15:08.667Z,1310.63
2018-06-04T12:15:47.418Z,264.38
2018-06-04T12:16:47.429Z,253.13
2018-06-04T12:17:47.442Z,196.88
2018-06-04T12:18:47.454Z,264.38
2018-06-04T12:19:47.469Z,230.63
2018-06-04T12:21:08.491Z,1901.25
2018-06-04T12:21:47.486Z,230.63
2018-06-04T12:22:47.497Z,511.88
2018-06-04T12:23:47.512Z,202.50
2018-06-04T12:24:47.521Z,191.25
2018-06-04T12:25:47.531Z,208.13
2018-06-04T12:27:08.581Z,1828.13
2018-06-04T12:27:47.555Z,1316.25
2018-06-04T12:28:47.562Z,1850.63
2018-06-04T12:29:47.573Z,1777.50
2018-06-04T12:30:47.588Z,1068.75
2018-06-04T12:31:47.604Z,253.13
2018-06-04T12:33:08.618Z,303.75
2018-06-04T12:33:47.811Z,1800.00
2018-06-04T12:34:47.623Z,1861.88
2018-06-04T12:35:47.626Z,1861.88
2018-06-04T12:36:47.648Z,1901.25
2018-06-04T12:37:47.653Z,1873.13
2018-06-04T12:39:08.698Z,1828.13
2018-06-04T12:39:47.680Z,1777.50
2018-06-04T12:40:47.693Z,1749.38